createdAt,value
2018-05-16T00:00:42.318Z,0
2018-05-16T00:01:43.713Z,0
2018-05-16T00:02:45.105Z,0
2018-05-16T00:03:46.513Z,0
2018-05-16T00:04:47.900Z,0
2018-05-16T00:05:49.470Z,0
2018-05-16T00:06:50.864Z,0
2018-05-16T00:07:52.253Z,0
2018-05-16T00:08:53.650Z,0
2018-05-16T00:09:55.042Z,0
2018-05-16T00:10:56.433Z,0
2018-05-16T00:11:57.827Z,0
2018-05-16T00:12:59.219Z,0
2018-05-16T00:14:00.612Z,0
2018-05-16T00:15:02.010Z,0
2018-05-16T00:16:03.402Z,0
2018-05-16T00:17:04.797Z,0
2018-05-16T00:18:06.189Z,0
2018-05-16T00:19:07.604Z,0
2018-05-16T00:20:08.995Z,0
2018-05-16T00:21:10.389Z,0
2018-05-16T00:22:11.781Z,0
2018-05-16T00:23:13.175Z,0
2018-05-16T00:24:14.566Z,0
2018-05-16T00:25:15.957Z,0
2018-05-16T00:26:17.354Z,0
2018-05-16T00:27:18.749Z,0
2018-05-16T00:28:20.147Z,0
2018-05-16T00:29:21.534Z,0
2018-05-16T00:30:22.927Z,0
2018-05-16T00:31:24.321Z,0
2018-05-16T00:32:25.713Z,0
2018-05-16T00:33:27.107Z,0
2018-05-16T00:34:28.500Z,0
2018-05-16T00:35:29.888Z,0
2018-05-16T00:36:31.280Z,0
2018-05-16T00:37:32.673Z,0
2018-05-16T00:38:34.064Z,0
2018-05-16T00:39:35.454Z,0
2018-05-16T00:40:36.848Z,0
2018-05-16T00:41:38.246Z,0
2018-05-16T00:42:39.638Z,0
2018-05-16T00:43:41.034Z,0
2018-05-16T00:44:42.428Z,0
2018-05-16T00:45:43.821Z,0
2018-05-16T00:46:45.216Z,0
2018-05-16T00:47:46.609Z,0
2018-05-16T00:48:48.001Z,0
2018-05-16T00:49:49.390Z,0
2018-05-16T00:50:50.783Z,0
2018-05-16T00:51:52.180Z,0
2018-05-16T00:52:53.632Z,0
2018-05-16T00:53:55.040Z,0
2018-05-16T00:54:56.433Z,0
2018-05-16T00:55:57.828Z,0
2018-05-16T00:56:59.215Z,0
2018-05-16T00:58:00.603Z,0
2018-05-16T00:59:01.996Z,0
2018-05-16T01:00:03.389Z,0
2018-05-16T01:01:04.781Z,0
2018-05-16T01:02:06.201Z,0
2018-05-16T01:03:07.569Z,0
2018-05-16T01:04:08.958Z,0
2018-05-16T01:05:10.346Z,0
2018-05-16T01:06:11.737Z,0
2018-05-16T01:07:13.131Z,0
2018-05-16T01:08:14.519Z,0
2018-05-16T01:09:15.910Z,0
2018-05-16T01:10:17.309Z,0
2018-05-16T01:11:18.703Z,0
2018-05-16T01:12:20.119Z,0
2018-05-16T01:13:21.485Z,0
2018-05-16T01:14:22.880Z,0
2018-05-16T01:15:24.273Z,0
2018-05-16T01:16:25.668Z,0
2018-05-16T01:17:27.059Z,0
2018-05-16T01:18:28.465Z,0
2018-05-16T01:19:29.856Z,0
2018-05-16T01:20:31.247Z,0
2018-05-16T01:21:32.641Z,0
2018-05-16T01:22:34.035Z,0
2018-05-16T01:23:35.428Z,0
2018-05-16T01:24:36.822Z,0
2018-05-16T01:25:38.216Z,0
2018-05-16T01:26:39.605Z,0
2018-05-16T01:27:41.000Z,0
2018-05-16T01:28:42.396Z,0
2018-05-16T01:29:43.788Z,0
2018-05-16T01:30:45.181Z,0
2018-05-16T01:31:46.570Z,0
2018-05-16T01:32:47.961Z,0
2018-05-16T01:33:49.355Z,0
2018-05-16T01:34:50.744Z,0
2018-05-16T01:35:52.136Z,0
2018-05-16T01:36:53.531Z,0
2018-05-16T01:37:54.921Z,0
2018-05-16T01:38:56.317Z,0
2018-05-16T01:39:57.802Z,0
2018-05-16T01:40:59.172Z,0
2018-05-16T01:42:00.569Z,0
2018-05-16T01:43:01.956Z,0
2018-05-16T01:44:03.351Z,0
2018-05-16T01:45:04.744Z,0
2018-05-16T01:46:06.135Z,0
2018-05-16T01:47:07.530Z,0
2018-05-16T01:48:08.920Z,0
2018-05-16T01:49:10.317Z,0
2018-05-16T01:50:11.712Z,0
2018-05-16T01:51:13.111Z,0
2018-05-16T01:52:14.502Z,0
2018-05-16T01:53:15.912Z,0
2018-05-16T01:54:17.283Z,0
2018-05-16T01:55:18.678Z,0
2018-05-16T01:56:20.068Z,0
2018-05-16T01:57:21.460Z,0
2018-05-16T01:58:22.856Z,0
2018-05-16T01:59:24.248Z,0
2018-05-16T02:00:25.644Z,0
2018-05-16T02:01:27.033Z,0
2018-05-16T02:02:28.425Z,0
2018-05-16T02:03:29.819Z,0
2018-05-16T02:04:31.212Z,0
2018-05-16T02:05:32.602Z,0
2018-05-16T02:06:34.001Z,0
2018-05-16T02:07:35.391Z,0
2018-05-16T02:08:36.788Z,0
2018-05-16T02:09:38.207Z,0
2018-05-16T02:10:39.598Z,0
2018-05-16T02:11:40.991Z,0
2018-05-16T02:12:42.384Z,0
2018-05-16T02:13:43.774Z,0
2018-05-16T02:14:45.181Z,0
2018-05-16T02:15:46.572Z,0
2018-05-16T02:16:47.973Z,0
2018-05-16T02:17:49.357Z,0
2018-05-16T02:18:50.767Z,0
2018-05-16T02:19:52.163Z,0
2018-05-16T02:20:53.568Z,0
2018-05-16T02:21:54.964Z,0
2018-05-16T02:22:56.362Z,0
2018-05-16T02:23:57.745Z,0
2018-05-16T02:24:59.137Z,0
2018-05-16T02:26:00.533Z,0
2018-05-16T02:27:01.982Z,0
2018-05-16T02:28:03.397Z,0
2018-05-16T02:29:04.791Z,0
2018-05-16T02:30:06.193Z,0
2018-05-16T02:31:07.572Z,0
2018-05-16T02:32:08.961Z,0
2018-05-16T02:33:10.357Z,0
2018-05-16T02:34:11.749Z,0
2018-05-16T02:35:13.140Z,0
2018-05-16T02:36:14.533Z,0
2018-05-16T02:37:15.977Z,0
2018-05-16T02:38:17.345Z,0
2018-05-16T02:39:18.737Z,0
2018-05-16T02:40:20.128Z,0
2018-05-16T02:41:21.524Z,0
2018-05-16T02:42:22.912Z,0
2018-05-16T02:43:24.309Z,0
2018-05-16T02:44:25.701Z,0
2018-05-16T02:45:27.093Z,0
2018-05-16T02:46:28.485Z,0
2018-05-16T02:47:29.911Z,0
2018-05-16T02:48:31.269Z,0
2018-05-16T02:49:32.659Z,0
2018-05-16T02:50:34.059Z,0
2018-05-16T02:51:35.446Z,0
2018-05-16T02:52:36.839Z,0
2018-05-16T02:53:38.230Z,0
2018-05-16T02:54:39.623Z,0
2018-05-16T02:55:41.010Z,0
2018-05-16T02:56:42.412Z,0
2018-05-16T02:57:43.808Z,0
2018-05-16T02:58:45.198Z,0
2018-05-16T02:59:46.592Z,0
2018-05-16T03:00:47.984Z,0
2018-05-16T03:01:49.384Z,0
2018-05-16T03:02:50.773Z,0
2018-05-16T03:03:52.188Z,0
2018-05-16T03:04:53.587Z,0
2018-05-16T03:05:54.981Z,0
2018-05-16T03:06:56.373Z,0
2018-05-16T03:07:57.767Z,0
2018-05-16T03:08:59.157Z,0
2018-05-16T03:10:00.555Z,0
2018-05-16T03:11:01.944Z,0
2018-05-16T03:12:03.338Z,0
2018-05-16T03:13:04.732Z,0
2018-05-16T03:14:06.148Z,0
2018-05-16T03:15:07.547Z,0
2018-05-16T03:16:08.937Z,0
2018-05-16T03:17:10.330Z,0
2018-05-16T03:18:11.728Z,0
2018-05-16T03:19:13.122Z,0
2018-05-16T03:20:14.514Z,0
2018-05-16T03:21:15.904Z,0
2018-05-16T03:22:17.312Z,0
2018-05-16T03:23:18.704Z,0
2018-05-16T03:24:20.098Z,0
2018-05-16T03:25:21.501Z,0
2018-05-16T03:26:22.893Z,0
2018-05-16T03:27:24.286Z,0
2018-05-16T03:28:25.678Z,0
2018-05-16T03:29:27.076Z,0
2018-05-16T03:30:28.470Z,0
2018-05-16T03:31:29.860Z,0
2018-05-16T03:32:31.256Z,0
2018-05-16T03:33:32.648Z,0
2018-05-16T03:34:34.038Z,0
2018-05-16T03:35:35.447Z,0
2018-05-16T03:36:36.841Z,0
2018-05-16T03:37:38.234Z,0
2018-05-16T03:38:39.630Z,0
2018-05-16T03:39:41.026Z,0
2018-05-16T03:40:42.422Z,0
2018-05-16T03:41:43.814Z,0
2018-05-16T03:42:45.207Z,0
2018-05-16T03:43:46.601Z,0
2018-05-16T03:44:47.992Z,0
2018-05-16T03:45:49.416Z,0
2018-05-16T03:46:50.810Z,0
2018-05-16T03:47:52.206Z,0
2018-05-16T03:48:53.600Z,0
2018-05-16T03:49:54.992Z,0
2018-05-16T03:50:56.385Z,0
2018-05-16T03:51:57.829Z,0
2018-05-16T03:52:59.170Z,0
2018-05-16T03:54:00.562Z,0
2018-05-16T03:55:01.955Z,0
2018-05-16T03:56:03.348Z,0
2018-05-16T03:57:04.739Z,0
2018-05-16T03:58:06.133Z,0
2018-05-16T03:59:07.524Z,0
2018-05-16T04:00:08.928Z,0
2018-05-16T04:01:10.375Z,0
2018-05-16T04:02:11.809Z,0
2018-05-16T04:03:13.174Z,0
2018-05-16T04:04:14.568Z,5
2018-05-16T04:05:15.961Z,5
2018-05-16T04:06:17.356Z,5
2018-05-16T04:07:18.781Z,5
2018-05-16T04:08:20.174Z,5
2018-05-16T04:09:21.568Z,5
2018-05-16T04:10:22.965Z,5
2018-05-16T04:11:24.355Z,5
2018-05-16T04:12:25.753Z,5
2018-05-16T04:13:27.228Z,5
2018-05-16T04:14:28.548Z,5
2018-05-16T04:15:29.934Z,5
2018-05-16T04:16:31.335Z,5
2018-05-16T04:17:32.727Z,5
2018-05-16T04:18:34.124Z,5
2018-05-16T04:19:35.516Z,5
2018-05-16T04:20:36.910Z,11
2018-05-16T04:21:38.309Z,11
2018-05-16T04:22:39.706Z,11
2018-05-16T04:23:41.100Z,11
2018-05-16T04:24:42.495Z,11
2018-05-16T04:25:43.891Z,11
2018-05-16T04:26:45.296Z,11
2018-05-16T04:27:46.690Z,11
2018-05-16T04:28:48.111Z,11
2018-05-16T04:29:49.487Z,11
2018-05-16T04:30:50.888Z,11
2018-05-16T04:31:52.283Z,11
2018-05-16T04:32:53.673Z,11
2018-05-16T04:33:55.069Z,11
2018-05-16T04:34:56.464Z,11
2018-05-16T04:35:57.862Z,11
2018-05-16T04:36:59.257Z,16
2018-05-16T04:38:00.660Z,16
2018-05-16T04:39:02.061Z,16
2018-05-16T04:40:03.461Z,16
2018-05-16T04:41:04.850Z,22
2018-05-16T04:42:06.319Z,22
2018-05-16T04:43:07.734Z,22
2018-05-16T04:44:09.131Z,28
2018-05-16T04:45:10.527Z,28
2018-05-16T04:46:11.936Z,28
2018-05-16T04:47:13.431Z,28
2018-05-16T04:48:14.866Z,28
2018-05-16T04:49:16.261Z,28
2018-05-16T04:50:17.663Z,28
2018-05-16T04:51:19.060Z,28
2018-05-16T04:52:20.456Z,28
2018-05-16T04:53:21.847Z,33
2018-05-16T04:54:23.241Z,33
2018-05-16T04:55:24.633Z,33
2018-05-16T04:56:26.029Z,33
2018-05-16T04:57:27.437Z,33
2018-05-16T04:58:28.844Z,33
2018-05-16T04:59:30.245Z,33
2018-05-16T05:00:31.644Z,33
2018-05-16T05:01:33.040Z,33
2018-05-16T05:02:34.442Z,39
2018-05-16T05:03:35.833Z,39
2018-05-16T05:04:37.231Z,39
2018-05-16T05:05:38.631Z,39
2018-05-16T05:06:40.028Z,39
2018-05-16T05:07:41.419Z,39
2018-05-16T05:08:42.814Z,39
2018-05-16T05:09:44.206Z,39
2018-05-16T05:10:45.603Z,39
2018-05-16T05:11:47.001Z,39
2018-05-16T05:12:48.396Z,39
2018-05-16T05:13:49.798Z,39
2018-05-16T05:14:51.190Z,39
2018-05-16T05:15:52.589Z,39
2018-05-16T05:16:53.981Z,39
2018-05-16T05:17:55.394Z,39
2018-05-16T05:18:56.796Z,39
2018-05-16T05:19:58.185Z,39
2018-05-16T05:20:59.584Z,39
2018-05-16T05:22:00.978Z,45
2018-05-16T05:23:02.374Z,45
2018-05-16T05:24:03.831Z,50
2018-05-16T05:25:05.187Z,50
2018-05-16T05:26:06.583Z,50
2018-05-16T05:27:07.985Z,50
2018-05-16T05:28:09.382Z,50
2018-05-16T05:29:10.777Z,50
2018-05-16T05:30:12.235Z,50
2018-05-16T05:31:13.572Z,50
2018-05-16T05:32:14.972Z,56
2018-05-16T05:33:16.367Z,56
2018-05-16T05:34:17.858Z,56
2018-05-16T05:35:19.284Z,56
2018-05-16T05:36:20.680Z,50
2018-05-16T05:37:22.086Z,50
2018-05-16T05:38:23.478Z,50
2018-05-16T05:39:24.878Z,50
2018-05-16T05:40:26.275Z,50
2018-05-16T05:41:27.672Z,50
2018-05-16T05:42:29.068Z,56
2018-05-16T05:43:30.473Z,56
2018-05-16T05:44:31.867Z,56
2018-05-16T05:45:33.330Z,56
2018-05-16T05:46:34.667Z,56
2018-05-16T05:47:36.065Z,50
2018-05-16T05:48:37.459Z,50
2018-05-16T05:49:38.856Z,50
2018-05-16T05:50:40.255Z,50
2018-05-16T05:51:41.669Z,50
2018-05-16T05:52:43.054Z,50
2018-05-16T05:53:44.445Z,50
2018-05-16T05:54:45.843Z,56
2018-05-16T05:55:47.304Z,56
2018-05-16T05:56:48.685Z,61
2018-05-16T05:57:50.080Z,67
2018-05-16T05:58:51.473Z,61
2018-05-16T05:59:52.869Z,67
2018-05-16T06:00:54.265Z,61
2018-05-16T06:01:55.672Z,61
2018-05-16T06:02:57.145Z,67
2018-05-16T06:03:58.566Z,67
2018-05-16T06:04:59.967Z,67
2018-05-16T06:06:01.365Z,73
2018-05-16T06:07:02.760Z,73
2018-05-16T06:08:04.157Z,67
2018-05-16T06:09:05.556Z,61
2018-05-16T06:10:06.963Z,61
2018-05-16T06:11:08.359Z,67
2018-05-16T06:12:09.753Z,67
2018-05-16T06:13:11.182Z,73
2018-05-16T06:14:12.579Z,73
2018-05-16T06:15:13.977Z,73
2018-05-16T06:16:15.372Z,73
2018-05-16T06:17:16.771Z,73
2018-05-16T06:18:18.174Z,73
2018-05-16T06:19:19.568Z,73
2018-05-16T06:20:21.044Z,73
2018-05-16T06:21:22.463Z,73
2018-05-16T06:22:23.860Z,67
2018-05-16T06:23:25.262Z,73
2018-05-16T06:24:26.659Z,73
2018-05-16T06:25:28.055Z,73
2018-05-16T06:26:29.451Z,73
2018-05-16T06:27:30.847Z,73
2018-05-16T06:28:32.344Z,78
2018-05-16T06:29:33.656Z,78
2018-05-16T06:30:35.050Z,78
2018-05-16T06:31:36.447Z,73
2018-05-16T06:32:37.850Z,73
2018-05-16T06:33:39.243Z,73
2018-05-16T06:34:40.640Z,73
2018-05-16T06:35:42.037Z,78
2018-05-16T06:36:43.432Z,78
2018-05-16T06:37:44.827Z,78
2018-05-16T06:38:46.229Z,78
2018-05-16T06:39:47.629Z,78
2018-05-16T06:40:49.024Z,78
2018-05-16T06:41:50.425Z,78
2018-05-16T06:42:51.820Z,78
2018-05-16T06:43:53.219Z,78
2018-05-16T06:44:54.622Z,78
2018-05-16T06:45:56.040Z,78
2018-05-16T06:46:57.431Z,78
2018-05-16T06:47:58.826Z,78
2018-05-16T06:49:00.230Z,78
2018-05-16T06:50:01.627Z,78
2018-05-16T06:51:03.026Z,78
2018-05-16T06:52:04.426Z,78
2018-05-16T06:53:05.822Z,78
2018-05-16T06:54:07.230Z,84
2018-05-16T06:55:08.621Z,84
2018-05-16T06:56:10.019Z,84
2018-05-16T06:57:11.416Z,84
2018-05-16T06:58:12.814Z,84
2018-05-16T06:59:14.209Z,84
2018-05-16T07:00:15.606Z,84
2018-05-16T07:01:17.007Z,90
2018-05-16T07:02:18.396Z,90
2018-05-16T07:03:19.796Z,90
2018-05-16T07:04:21.193Z,90
2018-05-16T07:05:22.611Z,90
2018-05-16T07:06:24.072Z,90
2018-05-16T07:07:25.473Z,95
2018-05-16T07:08:26.870Z,95
2018-05-16T07:09:28.269Z,95
2018-05-16T07:10:29.664Z,95
2018-05-16T07:11:31.062Z,95
2018-05-16T07:12:32.467Z,95
2018-05-16T07:13:33.889Z,95
2018-05-16T07:14:35.273Z,101
2018-05-16T07:15:36.666Z,101
2018-05-16T07:16:38.071Z,101
2018-05-16T07:17:39.469Z,101
2018-05-16T07:18:40.865Z,101
2018-05-16T07:19:42.282Z,101
2018-05-16T07:20:43.666Z,106
2018-05-16T07:21:45.072Z,106
2018-05-16T07:22:46.560Z,106
2018-05-16T07:23:47.894Z,106
2018-05-16T07:24:49.300Z,106
2018-05-16T07:25:50.694Z,112
2018-05-16T07:26:52.109Z,112
2018-05-16T07:27:53.493Z,112
2018-05-16T07:28:54.896Z,112
2018-05-16T07:29:56.300Z,112
2018-05-16T07:30:57.699Z,112
2018-05-16T07:31:59.098Z,112
2018-05-16T07:33:00.494Z,118
2018-05-16T07:34:01.892Z,118
2018-05-16T07:35:03.294Z,118
2018-05-16T07:36:04.697Z,123
2018-05-16T07:37:06.099Z,118
2018-05-16T07:38:07.501Z,129
2018-05-16T07:39:08.895Z,123
2018-05-16T07:40:10.293Z,123
2018-05-16T07:41:11.780Z,123
2018-05-16T07:42:13.097Z,123
2018-05-16T07:43:14.502Z,123
2018-05-16T07:44:15.901Z,123
2018-05-16T07:45:17.302Z,123
2018-05-16T07:46:18.703Z,129
2018-05-16T07:47:20.110Z,129
2018-05-16T07:48:21.499Z,129
2018-05-16T07:49:23.029Z,135
2018-05-16T07:50:24.428Z,135
2018-05-16T07:51:25.833Z,135
2018-05-16T07:52:27.242Z,135
2018-05-16T07:53:28.642Z,140
2018-05-16T07:54:30.040Z,140
2018-05-16T07:55:31.438Z,140
2018-05-16T07:56:32.838Z,140
2018-05-16T07:57:34.235Z,140
2018-05-16T07:58:35.647Z,140
2018-05-16T07:59:37.045Z,140
2018-05-16T08:00:38.443Z,140
2018-05-16T08:01:39.843Z,140
2018-05-16T08:02:41.239Z,146
2018-05-16T08:03:42.648Z,146
2018-05-16T08:04:44.048Z,146
2018-05-16T08:05:45.450Z,146
2018-05-16T08:06:46.849Z,151
2018-05-16T08:07:48.245Z,151
2018-05-16T08:08:49.645Z,151
2018-05-16T08:09:51.048Z,151
2018-05-16T08:10:52.464Z,151
2018-05-16T08:11:53.866Z,157
2018-05-16T08:12:55.266Z,151
2018-05-16T08:13:56.665Z,174
2018-05-16T08:14:58.066Z,191
2018-05-16T08:15:59.471Z,196
2018-05-16T08:17:00.865Z,191
2018-05-16T08:18:02.264Z,191
2018-05-16T08:19:03.666Z,191
2018-05-16T08:20:05.071Z,202
2018-05-16T08:21:06.469Z,213
2018-05-16T08:22:07.869Z,208
2018-05-16T08:23:09.280Z,196
2018-05-16T08:24:10.680Z,196
2018-05-16T08:25:12.073Z,196
2018-05-16T08:26:13.478Z,208
2018-05-16T08:27:14.877Z,196
2018-05-16T08:28:16.278Z,196
2018-05-16T08:29:17.687Z,196
2018-05-16T08:30:19.083Z,196
2018-05-16T08:31:20.483Z,202
2018-05-16T08:32:21.914Z,168
2018-05-16T08:33:23.321Z,202
2018-05-16T08:34:24.720Z,185
2018-05-16T08:35:26.132Z,202
2018-05-16T08:36:27.545Z,213
2018-05-16T08:37:28.945Z,140
2018-05-16T08:38:30.345Z,135
2018-05-16T08:39:31.751Z,168
2018-05-16T08:40:33.153Z,135
2018-05-16T08:41:34.560Z,129
2018-05-16T08:42:35.953Z,135
2018-05-16T08:43:37.358Z,135
2018-05-16T08:44:38.759Z,140
2018-05-16T08:45:40.165Z,185
2018-05-16T08:46:41.570Z,213
2018-05-16T08:47:42.974Z,213
2018-05-16T08:48:44.373Z,157
2018-05-16T08:49:45.786Z,151
2018-05-16T08:50:47.181Z,146
2018-05-16T08:51:48.581Z,140
2018-05-16T08:52:49.984Z,208
2018-05-16T08:53:51.384Z,213
2018-05-16T08:54:52.787Z,241
2018-05-16T08:55:54.189Z,213
2018-05-16T08:56:55.590Z,247
2018-05-16T08:57:56.986Z,236
2018-05-16T08:58:58.389Z,208
2018-05-16T08:59:59.787Z,196
2018-05-16T09:01:01.189Z,219
2018-05-16T09:02:02.592Z,286
2018-05-16T09:03:03.997Z,247
2018-05-16T09:04:05.393Z,219
2018-05-16T09:05:06.799Z,230
2018-05-16T09:06:08.193Z,241
2018-05-16T09:07:09.598Z,230
2018-05-16T09:08:11.000Z,213
2018-05-16T09:09:12.401Z,196
2018-05-16T09:10:13.804Z,191
2018-05-16T09:11:15.205Z,191
2018-05-16T09:12:16.607Z,191
2018-05-16T09:13:18.017Z,185
2018-05-16T09:14:19.417Z,174
2018-05-16T09:15:20.823Z,174
2018-05-16T09:16:22.292Z,174
2018-05-16T09:17:23.790Z,185
2018-05-16T09:18:25.118Z,191
2018-05-16T09:19:26.512Z,180
2018-05-16T09:20:27.915Z,174
2018-05-16T09:21:29.316Z,174
2018-05-16T09:22:30.720Z,168
2018-05-16T09:23:32.134Z,146
2018-05-16T09:24:33.523Z,135
2018-05-16T09:25:34.922Z,135
2018-05-16T09:26:36.317Z,146
2018-05-16T09:27:37.718Z,151
2018-05-16T09:28:39.116Z,163
2018-05-16T09:29:40.516Z,168
2018-05-16T09:30:41.922Z,168
2018-05-16T09:31:43.323Z,174
2018-05-16T09:32:44.722Z,185
2018-05-16T09:33:46.126Z,213
2018-05-16T09:34:47.537Z,241
2018-05-16T09:35:48.937Z,258
2018-05-16T09:36:50.338Z,258
2018-05-16T09:37:51.745Z,241
2018-05-16T09:38:53.152Z,230
2018-05-16T09:39:54.551Z,213
2018-05-16T09:40:55.949Z,196
2018-05-16T09:41:57.357Z,185
2018-05-16T09:42:58.750Z,174
2018-05-16T09:44:00.152Z,168
2018-05-16T09:45:01.553Z,168
2018-05-16T09:46:02.992Z,174
2018-05-16T09:47:04.354Z,191
2018-05-16T09:48:05.759Z,213
2018-05-16T09:49:07.150Z,247
2018-05-16T09:50:08.554Z,303
2018-05-16T09:51:09.956Z,365
2018-05-16T09:52:11.358Z,354
2018-05-16T09:53:12.770Z,472
2018-05-16T09:54:14.173Z,450
2018-05-16T09:55:15.587Z,343
2018-05-16T09:56:16.988Z,309
2018-05-16T09:57:18.401Z,281
2018-05-16T09:58:19.792Z,270
2018-05-16T09:59:21.201Z,292
2018-05-16T10:00:22.602Z,326
2018-05-16T10:01:24.032Z,354
2018-05-16T10:02:25.452Z,343
2018-05-16T10:03:26.854Z,331
2018-05-16T10:04:28.257Z,337
2018-05-16T10:05:29.663Z,444
2018-05-16T10:06:31.067Z,376
2018-05-16T10:07:32.465Z,399
2018-05-16T10:08:33.868Z,450
2018-05-16T10:09:35.273Z,444
2018-05-16T10:10:36.676Z,405
2018-05-16T10:11:38.085Z,236
2018-05-16T10:12:39.487Z,393
2018-05-16T10:13:40.888Z,444
2018-05-16T10:14:42.304Z,450
2018-05-16T10:15:43.767Z,438
2018-05-16T10:16:45.166Z,433
2018-05-16T10:17:46.567Z,438
2018-05-16T10:18:47.997Z,298
2018-05-16T10:19:49.497Z,382
2018-05-16T10:20:50.902Z,225
2018-05-16T10:21:52.330Z,202
2018-05-16T10:22:53.786Z,382
2018-05-16T10:23:55.168Z,270
2018-05-16T10:24:56.574Z,495
2018-05-16T10:25:57.974Z,326
2018-05-16T10:26:59.393Z,315
2018-05-16T10:28:00.812Z,495
2018-05-16T10:29:02.214Z,343
2018-05-16T10:30:03.616Z,472
2018-05-16T10:31:05.017Z,337
2018-05-16T10:32:06.415Z,241
2018-05-16T10:33:07.818Z,219
2018-05-16T10:34:09.219Z,225
2018-05-16T10:35:10.622Z,371
2018-05-16T10:36:12.026Z,433
2018-05-16T10:37:13.427Z,320
2018-05-16T10:38:14.828Z,303
2018-05-16T10:39:16.233Z,303
2018-05-16T10:40:17.647Z,264
2018-05-16T10:41:19.041Z,247
2018-05-16T10:42:20.451Z,303
2018-05-16T10:43:21.853Z,343
2018-05-16T10:44:23.252Z,331
2018-05-16T10:45:24.716Z,421
2018-05-16T10:46:26.110Z,275
2018-05-16T10:47:27.517Z,286
2018-05-16T10:48:28.920Z,264
2018-05-16T10:49:30.323Z,219
2018-05-16T10:50:31.769Z,163
2018-05-16T10:51:33.121Z,112
2018-05-16T10:52:34.520Z,84
2018-05-16T10:53:35.917Z,73
2018-05-16T10:54:37.320Z,73
2018-05-16T10:55:38.721Z,73
2018-05-16T10:56:40.123Z,73
2018-05-16T10:57:41.865Z,61
2018-05-16T10:58:42.935Z,56
2018-05-16T10:59:44.338Z,50
2018-05-16T11:00:45.730Z,50
2018-05-16T11:01:47.131Z,56
2018-05-16T11:02:48.534Z,56
2018-05-16T11:03:49.930Z,50
2018-05-16T11:04:51.325Z,50
2018-05-16T11:05:52.730Z,56
2018-05-16T11:06:54.130Z,56
2018-05-16T11:07:55.535Z,45
2018-05-16T11:08:56.931Z,39
2018-05-16T11:09:58.329Z,33
2018-05-16T11:10:59.731Z,33
2018-05-16T11:12:01.131Z,33
2018-05-16T11:13:02.527Z,33
2018-05-16T11:14:03.925Z,39
2018-05-16T11:15:05.340Z,56
2018-05-16T11:16:06.744Z,61
2018-05-16T11:17:08.161Z,67
2018-05-16T11:18:09.559Z,67
2018-05-16T11:19:10.961Z,61
2018-05-16T11:20:12.364Z,61
2018-05-16T11:21:13.762Z,61
2018-05-16T11:22:15.175Z,67
2018-05-16T11:23:16.574Z,67
2018-05-16T11:24:17.976Z,67
2018-05-16T11:25:19.373Z,73
2018-05-16T11:26:20.770Z,73
2018-05-16T11:27:22.170Z,73
2018-05-16T11:28:23.570Z,73
2018-05-16T11:29:24.967Z,73
2018-05-16T11:30:26.367Z,67
2018-05-16T11:31:27.833Z,67
2018-05-16T11:32:29.237Z,67
2018-05-16T11:33:30.644Z,78
2018-05-16T11:34:32.046Z,84
2018-05-16T11:35:33.444Z,90
2018-05-16T11:36:34.939Z,112
2018-05-16T11:37:36.245Z,140
2018-05-16T11:38:37.645Z,185
2018-05-16T11:39:39.045Z,247
2018-05-16T11:40:40.455Z,382
2018-05-16T11:41:41.903Z,298
2018-05-16T11:42:43.276Z,275
2018-05-16T11:43:44.676Z,264
2018-05-16T11:44:46.075Z,258
2018-05-16T11:45:47.493Z,241
2018-05-16T11:46:48.876Z,236
2018-05-16T11:47:50.278Z,247
2018-05-16T11:48:51.755Z,331
2018-05-16T11:49:53.091Z,354
2018-05-16T11:50:54.495Z,343
2018-05-16T11:51:55.892Z,444
2018-05-16T11:52:57.294Z,540
2018-05-16T11:53:58.695Z,455
2018-05-16T11:55:00.098Z,382
2018-05-16T11:56:01.497Z,472
2018-05-16T11:57:02.904Z,354
2018-05-16T11:58:04.304Z,331
2018-05-16T11:59:05.717Z,303
2018-05-16T12:00:07.123Z,348
2018-05-16T12:01:08.522Z,337
2018-05-16T12:02:09.931Z,354
2018-05-16T12:03:11.325Z,292
2018-05-16T12:04:12.725Z,298
2018-05-16T12:05:14.121Z,365
2018-05-16T12:06:15.528Z,399
2018-05-16T12:07:16.931Z,416
2018-05-16T12:08:18.341Z,365
2018-05-16T12:09:19.726Z,388
2018-05-16T12:10:21.131Z,416
2018-05-16T12:11:22.534Z,365
2018-05-16T12:12:23.948Z,371
2018-05-16T12:13:25.350Z,399
2018-05-16T12:14:26.754Z,343
2018-05-16T12:15:28.157Z,354
2018-05-16T12:16:29.561Z,371
2018-05-16T12:17:31.148Z,382
2018-05-16T12:18:32.574Z,388
2018-05-16T12:19:33.977Z,376
2018-05-16T12:20:35.380Z,376
2018-05-16T12:21:36.815Z,360
2018-05-16T12:22:38.183Z,309
2018-05-16T12:23:39.592Z,303
2018-05-16T12:24:40.994Z,286
2018-05-16T12:25:42.397Z,281
2018-05-16T12:26:43.800Z,281
2018-05-16T12:27:45.201Z,292
2018-05-16T12:28:46.605Z,286
2018-05-16T12:29:48.009Z,264
2018-05-16T12:30:49.417Z,275
2018-05-16T12:31:50.818Z,298
2018-05-16T12:32:52.217Z,298
2018-05-16T12:33:53.622Z,303
2018-05-16T12:34:55.024Z,337
2018-05-16T12:35:56.427Z,337
2018-05-16T12:36:57.840Z,365
2018-05-16T12:37:59.269Z,354
2018-05-16T12:39:00.649Z,286
2018-05-16T12:40:02.049Z,309
2018-05-16T12:41:03.451Z,348
2018-05-16T12:42:04.850Z,382
2018-05-16T12:43:06.256Z,320
2018-05-16T12:44:07.661Z,303
2018-05-16T12:45:09.064Z,399
2018-05-16T12:46:10.463Z,320
2018-05-16T12:47:11.859Z,303
2018-05-16T12:48:13.265Z,247
2018-05-16T12:49:14.666Z,253
2018-05-16T12:50:16.069Z,230
2018-05-16T12:51:17.473Z,247
2018-05-16T12:52:18.886Z,292
2018-05-16T12:53:20.272Z,275
2018-05-16T12:54:21.677Z,320
2018-05-16T12:55:23.077Z,343
2018-05-16T12:56:24.479Z,174
2018-05-16T12:57:25.893Z,185
2018-05-16T12:58:27.296Z,208
2018-05-16T12:59:28.700Z,163
2018-05-16T13:00:30.107Z,123
2018-05-16T13:01:31.563Z,123
2018-05-16T13:02:32.961Z,101
2018-05-16T13:03:34.388Z,90
2018-05-16T13:04:35.792Z,84
2018-05-16T13:05:37.197Z,78
2018-05-16T13:06:38.601Z,73
2018-05-16T13:07:39.997Z,73
2018-05-16T13:08:41.397Z,73
2018-05-16T13:09:42.800Z,67
2018-05-16T13:10:44.195Z,73
2018-05-16T13:11:45.597Z,67
2018-05-16T13:12:46.996Z,67
2018-05-16T13:13:48.400Z,73
2018-05-16T13:14:49.796Z,73
2018-05-16T13:15:51.199Z,67
2018-05-16T13:16:52.608Z,73
2018-05-16T13:17:54.079Z,73
2018-05-16T13:18:55.400Z,61
2018-05-16T13:19:56.802Z,61
2018-05-16T13:20:58.205Z,61
2018-05-16T13:21:59.602Z,50
2018-05-16T13:23:01.006Z,50
2018-05-16T13:24:02.403Z,50
2018-05-16T13:25:03.830Z,56
2018-05-16T13:26:05.205Z,56
2018-05-16T13:27:06.613Z,56
2018-05-16T13:28:08.009Z,61
2018-05-16T13:29:09.412Z,67
2018-05-16T13:30:10.812Z,78
2018-05-16T13:31:12.218Z,90
2018-05-16T13:32:13.614Z,101
2018-05-16T13:33:15.016Z,112
2018-05-16T13:34:16.411Z,129
2018-05-16T13:35:17.824Z,151
2018-05-16T13:36:19.319Z,157
2018-05-16T13:37:20.621Z,129
2018-05-16T13:38:22.022Z,112
2018-05-16T13:39:23.423Z,112
2018-05-16T13:40:24.826Z,118
2018-05-16T13:41:26.230Z,140
2018-05-16T13:42:27.632Z,163
2018-05-16T13:43:29.037Z,163
2018-05-16T13:44:30.434Z,151
2018-05-16T13:45:31.834Z,146
2018-05-16T13:46:33.241Z,140
2018-05-16T13:47:34.638Z,129
2018-05-16T13:48:36.099Z,118
2018-05-16T13:49:37.539Z,118
2018-05-16T13:50:38.935Z,123
2018-05-16T13:51:40.340Z,129
2018-05-16T13:52:41.735Z,146
2018-05-16T13:53:43.135Z,180
2018-05-16T13:54:44.541Z,213
2018-05-16T13:55:45.937Z,241
2018-05-16T13:56:47.341Z,298
2018-05-16T13:57:48.740Z,292
2018-05-16T13:58:50.137Z,270
2018-05-16T13:59:51.538Z,264
2018-05-16T14:00:52.940Z,241
2018-05-16T14:01:54.344Z,219
2018-05-16T14:02:55.740Z,236
2018-05-16T14:03:57.140Z,270
2018-05-16T14:04:58.541Z,427
2018-05-16T14:05:59.942Z,410
2018-05-16T14:07:01.343Z,281
2018-05-16T14:08:02.747Z,230
2018-05-16T14:09:04.160Z,196
2018-05-16T14:10:05.554Z,174
2018-05-16T14:11:06.956Z,151
2018-05-16T14:12:08.361Z,135
2018-05-16T14:13:09.761Z,123
2018-05-16T14:14:11.164Z,118
2018-05-16T14:15:12.646Z,118
2018-05-16T14:16:13.991Z,118
2018-05-16T14:17:15.396Z,106
2018-05-16T14:18:16.800Z,95
2018-05-16T14:19:18.220Z,84
2018-05-16T14:20:19.617Z,78
2018-05-16T14:21:21.020Z,67
2018-05-16T14:22:22.449Z,56
2018-05-16T14:23:23.852Z,56
2018-05-16T14:24:25.285Z,56
2018-05-16T14:25:26.660Z,56
2018-05-16T14:26:28.056Z,50
2018-05-16T14:27:29.454Z,50
2018-05-16T14:28:30.852Z,50
2018-05-16T14:29:32.301Z,50
2018-05-16T14:30:33.704Z,56
2018-05-16T14:31:35.107Z,56
2018-05-16T14:32:36.524Z,67